»·PEaware :: WSN36 KSFO-KLAX

WSN36 :: KSFO-KLAX

FLIGHT INFORMATION

Flight Status: Arrived
Operator: Unknown
More flights by this operator :: More flights under this callsign
Pilot: Tanner C. (11250)
Aircraft: BOMBARDIER BD-100 CHALLENGER 300
(CL30)
More flights by this aircraft type
Origin: KSFO San Francisco Intl
United States
Destination: KLAX Los Angeles Intl
United States
More flights between these airports :: More routes between these airports
Route: +SSTIK3 EBAYE BURGL IRNMN2
File this flight plan on PilotEdge
Remarks:
Altitude:
(Current/Filed)
39,000ft
Speed:
(Current/Filed)
420kts
Departed: 11-Jul-18 02:17 PM
Arrived: 11-Jul-18 03:14 PM
Distance/Time
Traveled:
294nm/0:57
Distance/Time
To Go:
Arrived

Flight Plot

Page will automatically refresh every two minutes.

Flight plan parsing failed; only flown route is shown


Map Options




Map Legend


Flown Route
Filed Route
Departure Airport
Arrival Airport
Navaid (VOR, NDB)
Fix

Horizontal Profiles

Position Reports

Time Latitude Longitude Heading Altitude Ground
Speed
11-Jul-18 14:01 37.627721 -122.384272 298 19ft 0kts
11-Jul-18 14:02 37.627721 -122.384272 298 19ft 0kts
11-Jul-18 14:03 37.627721 -122.384272 298 19ft 0kts
11-Jul-18 14:04 37.627721 -122.384272 298 19ft 0kts
11-Jul-18 14:05 37.627721 -122.384272 298 19ft 0kts
11-Jul-18 14:06 37.627721 -122.384272 298 19ft 0kts
11-Jul-18 14:07 37.627721 -122.384272 298 19ft 0kts
11-Jul-18 14:08 37.627721 -122.384272 298 19ft 0kts
11-Jul-18 14:09 37.627721 -122.384272 298 19ft 0kts
11-Jul-18 14:10 37.627721 -122.384272 298 19ft 0kts
11-Jul-18 14:11 37.627772 -122.384431 278 19ft 6kts
11-Jul-18 14:12 37.627354 -122.384960 212 19ft 0kts
11-Jul-18 14:13 37.627350 -122.384963 212 19ft 1kts
11-Jul-18 14:14 37.622384 -122.385909 204 19ft 15kts
11-Jul-18 14:15 37.620214 -122.383372 119 19ft 17kts
11-Jul-18 14:16 37.615434 -122.380439 207 19ft 25kts
11-Jul-18 14:17 37.610255 -122.383893 209 19ft 23kts
11-Jul-18 14:18 37.610581 -122.381158 26 19ft 69kts
11-Jul-18 14:19 37.654592 -122.363691 2 2529ft 200kts
11-Jul-18 14:20 37.702702 -122.387478 284 5733ft 220kts
11-Jul-18 14:21 37.657565 -122.429746 191 9067ft 297kts
11-Jul-18 14:22 37.567316 -122.453773 192 13841ft 357kts
11-Jul-18 14:23 37.472865 -122.432954 140 18372ft 386kts
11-Jul-18 14:24 37.393583 -122.338983 134 22132ft 407kts
11-Jul-18 14:25 37.313951 -122.234538 133 25100ft 427kts
11-Jul-18 14:26 37.231651 -122.124084 132 27543ft 444kts
11-Jul-18 14:27 37.146947 -122.010147 132 29702ft 456kts
11-Jul-18 14:28 37.061803 -121.895879 133 32432ft 446kts
11-Jul-18 14:29 36.978568 -121.784516 133 34967ft 437kts
11-Jul-18 14:30 36.896814 -121.675495 134 37116ft 434kts
11-Jul-18 14:31 36.815495 -121.567456 134 38872ft 438kts
11-Jul-18 14:32 36.729088 -121.453096 134 38968ft 467kts
11-Jul-18 14:33 36.640942 -121.336782 135 38923ft 465kts
11-Jul-18 14:34 36.554811 -121.223523 135 38955ft 461kts
11-Jul-18 14:35 36.467019 -121.108496 135 38915ft 461kts
11-Jul-18 14:36 36.382401 -120.991168 132 38922ft 462kts
11-Jul-18 14:37 36.298450 -120.870732 132 38886ft 464kts
11-Jul-18 14:38 36.214204 -120.750243 132 38885ft 464kts
11-Jul-18 14:39 36.130409 -120.630816 132 38937ft 463kts
11-Jul-18 14:40 36.055127 -120.523884 132 38901ft 464kts
11-Jul-18 14:41 35.990945 -120.432981 132 38887ft 465kts
11-Jul-18 14:42 35.913137 -120.323113 133 38887ft 465kts
11-Jul-18 14:43 35.846084 -120.247094 148 38891ft 461kts
11-Jul-18 14:44 35.772040 -120.188733 149 38894ft 460kts
11-Jul-18 14:45 35.692010 -120.127629 150 38887ft 461kts
11-Jul-18 14:46 35.608954 -120.064730 150 38886ft 461kts
11-Jul-18 14:47 35.525468 -120.001742 150 38930ft 460kts
11-Jul-18 14:48 35.439801 -119.937326 150 38893ft 461kts
11-Jul-18 14:49 35.363567 -119.880208 149 38301ft 453kts
11-Jul-18 14:50 35.278052 -119.813234 143 36917ft 458kts
11-Jul-18 14:51 35.197064 -119.738162 142 35480ft 459kts
11-Jul-18 14:52 35.116742 -119.663400 142 33757ft 461kts
11-Jul-18 14:53 35.035655 -119.587991 141 31575ft 470kts
11-Jul-18 14:54 34.956168 -119.514225 141 29451ft 471kts
11-Jul-18 14:55 34.892668 -119.456176 142 27516ft 473kts
11-Jul-18 14:56 34.805876 -119.378405 142 25892ft 452kts
11-Jul-18 14:57 34.716621 -119.299334 143 25711ft 453kts
11-Jul-18 14:58 34.615664 -119.211497 144 23000ft 442kts
11-Jul-18 14:59 34.559585 -119.162900 143 21489ft 434kts
11-Jul-18 15:00 34.468952 -119.082753 143 20159ft 418kts
11-Jul-18 15:01 34.375923 -119.001755 143 17605ft 408kts
11-Jul-18 15:02 34.288964 -118.924113 142 14944ft 386kts
11-Jul-18 15:03 34.207998 -118.850164 141 13134ft 351kts
11-Jul-18 15:04 34.136542 -118.779458 136 11331ft 322kts
11-Jul-18 15:05 34.072803 -118.710393 136 9514ft 292kts
11-Jul-18 15:06 34.031791 -118.635403 99 8160ft 274kts
11-Jul-18 15:07 34.020655 -118.548047 97 7862ft 263kts
11-Jul-18 15:08 34.012107 -118.466788 91 6994ft 251kts
11-Jul-18 15:09 34.023151 -118.389365 80 6147ft 231kts
11-Jul-18 15:10 34.030959 -118.325765 85 5966ft 217kts
11-Jul-18 15:11 33.997132 -118.289293 171 5134ft 187kts
11-Jul-18 15:12 33.954202 -118.275181 182 2942ft 154kts
11-Jul-18 15:13 33.944137 -118.319070 257 1302ft 153kts
11-Jul-18 15:14 33.939262 -118.364125 262 423ft 149kts
11-Jul-18 15:15 33.935890 -118.396872 264 109ft 31kts
11-Jul-18 15:16 33.934383 -118.401935 140 109ft 0kts
11-Jul-18 15:17 33.934505 -118.398635 85 109ft 10kts
11-Jul-18 15:18 33.932663 -118.399141 259 109ft 5kts

Navigation Log

Ident Type
Flight plan parsing failed, navigation log unavailable